Welcome to our new website - Welkom op onze vernieuwde website - Bienvenue sur notre nouveau site web - Willkommen auf unserer neuen Website


Onweer radar Meer informatie blitzortung!


Regen radar Meer informatie rain snow radar


Andere websites:

Onze vorige site

Leuven Template



METAR rapporten vliegvelden

   
EHGG - Leeuwarden
Gewijzigd: 30-03-2020 18:25
Grotendeels bewolkt  
Grotendeels bewolkt  
   Wind: NNW 20.4 km/h
Wind: NNW 20.4 km/h
Temperatuur: 8°C
Voelt als: 5°C
Dauwpunt: 2°C
Vochtigheid: 66%
Barometer: 1026 hPa
Bewolking: Grotendeels bewolkt
Zicht: meer dan 10 km
Bewolking: Grotendeels bewolkt 2200 ft,
Grotendeels bewolkt 2700 ft,
Grotendeels bewolkt 3000 ft
EHGG 301625Z AUTO 33011KT 280V030 9999 BKN022 BKN027 BKN030 08/02 Q1026 NOSIG
EHGG - Terschelling
Gewijzigd: 30-03-2020 18:25
Grotendeels bewolkt  
Grotendeels bewolkt  
   Wind: NNW 20.4 km/h
Wind: NNW 20.4 km/h
Temperatuur: 8°C
Voelt als: 5°C
Dauwpunt: 2°C
Vochtigheid: 66%
Barometer: 1026 hPa
Bewolking: Grotendeels bewolkt
Zicht: meer dan 10 km
Bewolking: Grotendeels bewolkt 2200 ft,
Grotendeels bewolkt 2700 ft,
Grotendeels bewolkt 3000 ft
EHGG 301625Z AUTO 33011KT 280V030 9999 BKN022 BKN027 BKN030 08/02 Q1026 NOSIG
EHAM - Amsterdam
Gewijzigd: 30-03-2020 18:25
Nearby Showers, Gedeeltelijk bewolkt  
Nearby Showers, Gedeeltelijk bewolkt  
   Wind: NNW 25.9 km/h
Wind: NNW 25.9 km/h
Temperatuur: 8°C
Voelt als: 4°C
Dauwpunt: 4°C
Vochtigheid: 76%
Barometer: 1028 hPa
Bewolking: Gedeeltelijk bewolkt
Zicht: meer dan 10 km
Bewolking: Licht bewolkt 1800 ft,
Gedeeltelijk bewolkt 3200 ft
EHAM 301625Z 33014KT 9999 VCSH FEW018TCU SCT032 08/04 Q1028 TEMPO 6000 -SHRAGS SCT018CB
EHBK - Maastricht
Gewijzigd: 30-03-2020 18:25
Grotendeels bewolkt  
Grotendeels bewolkt  
   Wind: NW 7.4 km/h
Wind: NW 7.4 km/h
Temperatuur: 7°C
Voelt als: 6°C
Dauwpunt: 0°C
Vochtigheid: 61%
Barometer: 1026 hPa
Bewolking: Grotendeels bewolkt
Zicht: meer dan 10 km
Bewolking: Gedeeltelijk bewolkt 3600 ft,
Grotendeels bewolkt 4000 ft,
Grotendeels bewolkt 4700 ft
EHBK 301625Z AUTO 31004KT 270V350 9999 SCT036 BKN040 BKN047 07/00 Q1026 NOSIG
  

Script ontwikkeld door  Saratoga-weather.org Aangepast voor de template door  Weerstation Leuven

U vindt ons ook hier:

European Weather Network

Weather Underground

AWEKAS

Apparatuur in gebruik:

Weerstation
Davis VP2

Weerprogramma
Cumulus

Davis VP2

Cumulus